Погода Парковона неделю

Смоленская область, Россия

23 - 29 мая
  • 23мая
    Сегодня
    +7°
    +21°
    Ясно и безоблачно
    ВремяПогодаТемператураВлажностьДавлениеВетер, м/сВероятность осадков
    00:00Ясно и безоблачно+12°C49 %745 мм1.5 м/с2 %
    03:00Ясно и безоблачно+9°C56 %746 мм1.5 м/с2 %
    06:00Ясно и безоблачно+10°C60 %747 мм1.4 м/с2 %
    09:00Ясно и безоблачно+16°C51 %748 мм2.5 м/с2 %
    12:00Ясно и безоблачно+20°C36 %749 мм3.5 м/с2 %
    15:00Ясно и безоблачно+21°C36 %749 мм3.4 м/с2 %
    18:00Ясно и безоблачно+20°C39 %749 мм2.7 м/с2 %
    21:00Ясно и безоблачно+15°C52 %750 мм1.5 м/с2 %
  • 24мая
    Пятница
    +5°
    +20°
    Ясно и безоблачно
    ВремяПогодаТемператураВлажностьДавлениеВетер, м/сВероятность осадков
    00:00Ясно и безоблачно+11°C56 %750 мм1.1 м/с2 %
    03:00Ясно и безоблачно+8°C66 %751 мм1.0 м/с2 %
    06:00Практически безоблачно+8°C65 %752 мм0.9 м/с2 %
    09:00Ясно и безоблачно+14°C44 %753 мм2.1 м/с2 %
    12:00Ясно и безоблачно+18°C37 %753 мм3.1 м/с2 %
    15:00Ясно и безоблачно+19°C32 %752 мм3.1 м/с2 %
    18:00Ясно и безоблачно+19°C34 %752 мм2.3 м/с2 %
    21:00Ясно и безоблачно+13°C53 %751 мм1.1 м/с2 %
  • 25мая
    Суббота
    +8°
    +23°
    Ясно и безоблачно
    ВремяПогодаТемператураВлажностьДавлениеВетер, м/сВероятность осадков
    00:00Ясно и безоблачно+9°C63 %751 мм0.8 м/с2 %
    03:00Ясно и безоблачно+6°C74 %751 мм0.7 м/с2 %
    06:00Ясно и безоблачно+8°C75 %751 мм0.7 м/с2 %
    09:00Ясно и безоблачно+15°C55 %751 мм1.4 м/с2 %
    12:00Ясно и безоблачно+20°C38 %751 мм2.4 м/с2 %
    15:00Ясно и безоблачно+22°C35 %750 мм2.5 м/с2 %
    18:00Ясно и безоблачно+23°C36 %748 мм1.7 м/с2 %
    21:00Ясно и безоблачно+15°C61 %747 мм0.9 м/с2 %
  • 26мая
    Воскресенье
    +12°
    +25°
    Облачно с прояснениями
    ВремяПогодаТемператураВлажностьДавлениеВетер, м/сВероятность осадков
    00:00Ясно и безоблачно+11°C64 %747 мм0.6 м/с2 %
    03:00Ясно и безоблачно+9°C74 %747 мм0.8 м/с2 %
    06:00Ясно и безоблачно+11°C73 %747 мм0.8 м/с2 %
    09:00Ясно и безоблачно+19°C56 %747 мм1.5 м/с2 %
    12:00Ясно и безоблачно+23°C41 %747 мм2.4 м/с2 %
    15:00Облачно с прояснениями+24°C36 %747 мм2.3 м/с4 %
    18:00Облачно с прояснениями+25°C38 %746 мм1.4 м/с7 %
    21:00Практически безоблачно+19°C70 %747 мм0.9 м/с4 %
  • 27мая
    Понедельник
    +9°
    +23°
    Практически безоблачно
    ВремяПогодаТемператураВлажностьДавлениеВетер, м/сВероятность осадков
    00:00Небольшая облачность+15°C89 %747 мм0.8 м/с2 %
    03:00Ясно и безоблачно+13°C95 %748 мм1.1 м/с2 %
    06:00Ясно и безоблачно+13°C84 %749 мм0.9 м/с2 %
    09:00Ясно и безоблачно+19°C72 %749 мм2.0 м/с2 %
    12:00Практически безоблачно+21°C52 %749 мм2.8 м/с16 %
    15:00Практически безоблачно+23°C45 %749 мм2.6 м/с20 %
    18:00Практически безоблачно+23°C45 %749 мм1.5 м/с16 %
    21:00Ясно и безоблачно+18°C61 %749 мм1.0 м/с4 %
Мы используем cookies
Соглашаюсь